createdAt,value
2022-12-03T00:00:00.688Z,61.97
2022-12-03T00:02:27.771Z,62.29
2022-12-03T00:04:54.976Z,62.25
2022-12-03T00:07:22.152Z,62.30
2022-12-03T00:09:49.013Z,62.25
2022-12-03T00:12:16.205Z,62.24
2022-12-03T00:14:53.065Z,62.37
2022-12-03T00:17:20.113Z,62.19
2022-12-03T00:19:47.205Z,62.40
2022-12-03T00:24:41.141Z,62.36
2022-12-03T00:27:08.205Z,62.54
2022-12-03T00:29:35.226Z,62.30
2022-12-03T00:32:02.270Z,62.55
2022-12-03T00:34:29.198Z,62.57
2022-12-03T00:36:56.197Z,62.57
2022-12-03T00:39:23.157Z,62.38
2022-12-03T00:41:50.078Z,62.50
2022-12-03T00:44:17.029Z,62.58
2022-12-03T00:46:44.043Z,62.78
2022-12-03T00:49:11.100Z,62.61
2022-12-03T00:51:37.996Z,62.63
2022-12-03T00:54:05.160Z,62.86
2022-12-03T00:56:32.028Z,62.85
2022-12-03T00:59:01.871Z,62.69
2022-12-03T01:01:28.796Z,62.86
2022-12-03T01:03:55.726Z,62.78
2022-12-03T01:06:22.563Z,63.15
2022-12-03T01:08:49.450Z,63.06
2022-12-03T01:11:35.026Z,62.86
2022-12-03T01:14:01.858Z,62.77
2022-12-03T01:16:28.725Z,62.86
2022-12-03T01:18:55.580Z,63.14
2022-12-03T01:21:22.416Z,62.95
2022-12-03T01:23:49.493Z,62.99
2022-12-03T01:26:16.481Z,63.15
2022-12-03T01:28:43.332Z,63.09
2022-12-03T01:31:28.730Z,63.26
2022-12-03T01:33:55.712Z,63.38
2022-12-03T01:36:22.724Z,63.42
2022-12-03T01:38:49.577Z,63.40
2022-12-03T01:41:20.973Z,63.26
2022-12-03T01:43:48.973Z,63.19
2022-12-03T01:46:21.626Z,63.55
2022-12-03T01:48:50.962Z,63.35
2022-12-03T01:51:18.290Z,63.42
2022-12-03T01:53:45.987Z,63.41
2022-12-03T01:56:17.145Z,63.56
2022-12-03T01:58:44.619Z,63.48
2022-12-03T02:01:18.053Z,63.46
2022-12-03T02:03:46.327Z,63.54
2022-12-03T02:06:19.632Z,63.66
2022-12-03T02:08:48.119Z,63.50
2022-12-03T02:11:30.128Z,63.67
2022-12-03T02:14:02.590Z,63.74
2022-12-03T02:16:30.501Z,63.71
2022-12-03T02:18:58.739Z,63.69
2022-12-03T02:22:00.171Z,63.89
2022-12-03T02:24:37.646Z,63.85
2022-12-03T02:27:04.587Z,63.62
2022-12-03T02:29:31.620Z,63.62
2022-12-03T02:31:58.781Z,63.75
2022-12-03T02:34:46.284Z,63.68
2022-12-03T02:37:22.274Z,63.77
2022-12-03T02:39:54.076Z,63.82
2022-12-03T02:42:36.700Z,63.62
2022-12-03T02:45:24.319Z,64.03
2022-12-03T02:48:05.367Z,63.85
2022-12-03T02:50:40.256Z,64.01
2022-12-03T02:53:11.450Z,64.05
2022-12-03T02:55:38.650Z,63.88
2022-12-03T02:58:06.784Z,63.87
2022-12-03T03:00:36.047Z,63.95
2022-12-03T03:03:05.069Z,64.10
2022-12-03T03:05:33.260Z,64.16
2022-12-03T03:08:01.387Z,63.99
2022-12-03T03:10:29.368Z,63.97
2022-12-03T03:12:56.595Z,64.25
2022-12-03T03:15:24.885Z,64.06
2022-12-03T03:17:52.273Z,64.03
2022-12-03T03:20:19.502Z,63.95
2022-12-03T03:22:46.593Z,64.13
2022-12-03T03:25:21.326Z,64.17
2022-12-03T03:27:48.258Z,64.01
2022-12-03T03:30:15.258Z,64.07
2022-12-03T03:32:43.188Z,63.99
2022-12-03T03:35:11.611Z,64.23
2022-12-03T03:37:39.359Z,64.46
2022-12-03T03:40:07.228Z,64.14
2022-12-03T03:42:34.347Z,64.30
2022-12-03T03:45:01.288Z,64.12
2022-12-03T03:47:28.152Z,64.16
2022-12-03T03:49:55.046Z,64.22
2022-12-03T03:52:22.587Z,64.23
2022-12-03T03:54:49.694Z,64.25
2022-12-03T03:57:16.562Z,64.08
2022-12-03T03:59:43.586Z,64.23
2022-12-03T04:02:21.727Z,64.21
2022-12-03T04:04:49.122Z,64.23
2022-12-03T04:07:16.920Z,64.14
2022-12-03T04:09:44.238Z,64.29
2022-12-03T04:12:32.685Z,64.26
2022-12-03T04:14:59.737Z,64.16
2022-12-03T04:17:26.715Z,64.20
2022-12-03T04:19:53.507Z,64.13
2022-12-03T04:22:41.845Z,64.40
2022-12-03T04:25:28.872Z,64.23
2022-12-03T04:28:14.546Z,64.55
2022-12-03T04:30:41.502Z,64.45
2022-12-03T04:33:26.772Z,64.33
2022-12-03T04:35:53.678Z,64.38
2022-12-03T04:38:20.547Z,64.55
2022-12-03T04:41:04.304Z,64.39
2022-12-03T04:43:33.188Z,64.30
2022-12-03T04:46:01.221Z,64.49
2022-12-03T04:48:28.191Z,64.34
2022-12-03T04:50:54.978Z,64.62
2022-12-03T04:53:21.842Z,64.62
2022-12-03T04:55:48.698Z,64.50
2022-12-03T04:58:15.528Z,64.61
2022-12-03T05:00:42.338Z,64.51
2022-12-03T05:03:09.131Z,64.42
2022-12-03T05:05:36.051Z,64.55
2022-12-03T05:08:02.963Z,64.60
2022-12-03T05:10:29.868Z,64.51
2022-12-03T05:12:56.871Z,64.63
2022-12-03T05:15:23.676Z,64.68
2022-12-03T05:17:50.495Z,64.60
2022-12-03T05:20:35.900Z,64.42
2022-12-03T05:23:02.866Z,64.56
2022-12-03T05:25:29.692Z,64.57
2022-12-03T05:27:56.588Z,64.43
2022-12-03T05:30:23.452Z,64.53
2022-12-03T05:32:50.298Z,64.67
2022-12-03T05:35:17.636Z,64.58
2022-12-03T05:37:44.456Z,64.77
2022-12-03T05:40:12.166Z,64.76
2022-12-03T05:42:54.434Z,64.58
2022-12-03T05:45:23.787Z,64.75
2022-12-03T05:47:51.746Z,64.93
2022-12-03T05:50:19.392Z,64.63
2022-12-03T05:52:46.500Z,64.78
2022-12-03T05:55:13.778Z,64.80
2022-12-03T05:57:40.736Z,64.69
2022-12-03T06:00:13.035Z,64.64
2022-12-03T06:02:40.137Z,64.87
2022-12-03T06:05:08.142Z,64.71
2022-12-03T06:07:34.986Z,64.56
2022-12-03T06:10:01.857Z,64.82
2022-12-03T06:12:28.742Z,64.77
2022-12-03T06:14:55.854Z,64.72
2022-12-03T06:17:22.835Z,64.65
2022-12-03T06:19:49.746Z,64.70
2022-12-03T06:22:16.593Z,64.67
2022-12-03T06:24:43.473Z,65.05
2022-12-03T06:27:10.542Z,64.76
2022-12-03T06:29:37.373Z,64.57
2022-12-03T06:32:05.653Z,64.53
2022-12-03T06:34:32.477Z,64.85
2022-12-03T06:36:59.258Z,65.04
2022-12-03T06:39:26.123Z,64.96
2022-12-03T06:41:52.957Z,65.14
2022-12-03T06:44:19.793Z,64.79
2022-12-03T06:46:46.753Z,64.48
2022-12-03T06:49:13.860Z,64.74
2022-12-03T06:51:40.740Z,64.67
2022-12-03T06:54:07.618Z,64.72
2022-12-03T06:56:37.845Z,64.60
2022-12-03T06:59:08.676Z,64.63
2022-12-03T07:01:35.546Z,64.47
2022-12-03T07:04:02.337Z,64.64
2022-12-03T07:06:29.173Z,64.77
2022-12-03T07:08:56.081Z,64.90
2022-12-03T07:11:32.230Z,64.69
2022-12-03T07:14:05.146Z,64.84
2022-12-03T07:16:33.133Z,64.60
2022-12-03T07:19:00.263Z,64.76
2022-12-03T07:21:27.073Z,64.43
2022-12-03T07:23:53.996Z,64.53
2022-12-03T07:26:21.098Z,64.62
2022-12-03T07:28:48.553Z,64.64
2022-12-03T07:31:15.838Z,64.86
2022-12-03T07:33:42.768Z,64.75
2022-12-03T07:36:10.417Z,64.99
2022-12-03T07:38:37.430Z,65.21
2022-12-03T07:41:04.359Z,65.21
2022-12-03T07:43:31.347Z,65.01
2022-12-03T07:45:58.312Z,65.36
2022-12-03T07:48:25.186Z,65.19
2022-12-03T07:50:52.026Z,65.35
2022-12-03T07:53:18.961Z,65.22
2022-12-03T07:55:46.019Z,65.39
2022-12-03T07:58:12.840Z,65.50
2022-12-03T08:00:39.844Z,65.30
2022-12-03T08:03:06.698Z,65.51
2022-12-03T08:05:33.616Z,65.39
2022-12-03T08:08:01.530Z,65.41
2022-12-03T08:10:28.481Z,65.19
2022-12-03T08:12:58.323Z,65.46
2022-12-03T08:15:27.317Z,65.38
2022-12-03T08:17:59.791Z,65.25
2022-12-03T08:20:29.744Z,65.32
2022-12-03T08:22:57.657Z,65.20
2022-12-03T08:25:24.510Z,65.13
2022-12-03T08:27:53.904Z,65.25
2022-12-03T08:30:21.080Z,65.13
2022-12-03T08:32:48.509Z,65.14
2022-12-03T08:35:20.875Z,64.93
2022-12-03T08:38:00.311Z,64.68
2022-12-03T08:40:36.542Z,64.46
2022-12-03T08:43:16.676Z,64.18
2022-12-03T08:45:43.939Z,64.07
2022-12-03T08:48:34.606Z,64.40
2022-12-03T08:51:21.846Z,64.60
2022-12-03T08:53:55.360Z,64.55
2022-12-03T08:56:30.449Z,64.33
2022-12-03T08:59:31.018Z,64.60
2022-12-03T09:01:59.828Z,64.57
2022-12-03T09:04:31.319Z,64.69
2022-12-03T09:06:58.487Z,64.45
2022-12-03T09:09:25.962Z,64.45
2022-12-03T09:11:54.192Z,64.37
2022-12-03T09:14:22.959Z,64.18
2022-12-03T09:16:56.470Z,64.40
2022-12-03T09:19:27.818Z,64.31
2022-12-03T09:21:55.052Z,64.05
2022-12-03T09:24:22.421Z,64.17
2022-12-03T09:26:49.902Z,64.01
2022-12-03T09:29:17.067Z,63.76
2022-12-03T09:31:44.183Z,63.86
2022-12-03T09:34:11.582Z,63.68
2022-12-03T09:36:38.615Z,63.52
2022-12-03T09:39:05.720Z,63.56
2022-12-03T09:41:32.984Z,63.66
2022-12-03T09:44:04.771Z,63.65
2022-12-03T09:46:34.380Z,63.87
2022-12-03T09:49:01.929Z,63.64
2022-12-03T09:51:33.428Z,63.16
2022-12-03T09:54:03.313Z,63.13
2022-12-03T09:56:30.707Z,63.17
2022-12-03T09:58:57.921Z,63.21
2022-12-03T10:01:29.958Z,63.26
2022-12-03T10:03:58.721Z,63.04
2022-12-03T10:06:25.702Z,63.13
2022-12-03T10:08:55.333Z,62.94
2022-12-03T10:11:25.153Z,62.95
2022-12-03T10:13:56.738Z,62.83
2022-12-03T10:16:24.374Z,62.78
2022-12-03T10:18:56.151Z,62.58
2022-12-03T10:21:29.164Z,61.96
2022-12-03T10:24:17.569Z,61.69
2022-12-03T10:26:46.815Z,61.57
2022-12-03T10:29:34.834Z,61.54
2022-12-03T10:32:05.016Z,61.59
2022-12-03T10:34:34.959Z,61.75
2022-12-03T10:37:14.712Z,61.63
2022-12-03T10:40:11.017Z,61.34
2022-12-03T10:42:41.554Z,61.08
2022-12-03T10:45:15.728Z,60.81
2022-12-03T10:47:44.506Z,60.63
2022-12-03T10:50:18.912Z,60.98
2022-12-03T10:52:47.074Z,60.58
2022-12-03T10:55:15.308Z,60.87
2022-12-03T10:57:45.928Z,61.04
2022-12-03T11:00:19.282Z,60.67
2022-12-03T11:02:53.337Z,60.60
2022-12-03T11:05:27.692Z,60.60
2022-12-03T11:07:54.760Z,60.51
2022-12-03T11:10:22.165Z,60.40
2022-12-03T11:13:27.144Z,60.40
2022-12-03T11:15:55.069Z,60.73
2022-12-03T11:18:37.250Z,60.71
2022-12-03T11:21:07.110Z,60.64
2022-12-03T11:23:46.063Z,60.82
2022-12-03T11:26:19.442Z,61.21
2022-12-03T11:28:46.681Z,60.77
2022-12-03T11:31:38.670Z,60.88
2022-12-03T11:34:23.425Z,61.10
2022-12-03T11:37:12.071Z,60.48
2022-12-03T11:39:47.927Z,61.11
2022-12-03T11:42:26.700Z,61.31
2022-12-03T11:45:31.339Z,61.60
2022-12-03T11:48:17.127Z,61.57
2022-12-03T11:50:51.312Z,61.67
2022-12-03T11:53:23.028Z,61.74
2022-12-03T11:56:04.226Z,61.49
2022-12-03T11:58:32.251Z,61.65
2022-12-03T12:01:01.615Z,61.45
2022-12-03T12:03:33.301Z,61.50
2022-12-03T12:06:05.446Z,61.43
2022-12-03T12:08:33.114Z,61.19
2022-12-03T12:11:00.123Z,61.12
2022-12-03T12:13:36.055Z,60.81
2022-12-03T12:16:05.501Z,60.95
2022-12-03T12:18:42.691Z,60.92
2022-12-03T12:21:44.936Z,58.71
2022-12-03T12:24:48.515Z,59.17
2022-12-03T12:27:23.081Z,59.60
2022-12-03T12:29:56.588Z,59.89
2022-12-03T12:32:33.167Z,60.32
2022-12-03T12:35:23.481Z,60.33
2022-12-03T12:37:59.660Z,60.46
2022-12-03T12:40:33.123Z,60.64
2022-12-03T12:43:10.005Z,60.60
2022-12-03T12:45:42.649Z,60.12
2022-12-03T12:48:31.430Z,60.47
2022-12-03T12:51:09.930Z,60.33
2022-12-03T12:53:38.270Z,60.29
2022-12-03T12:56:26.371Z,60.39
2022-12-03T12:58:54.310Z,60.53
2022-12-03T13:01:32.869Z,60.39
2022-12-03T13:04:00.239Z,60.58
2022-12-03T13:06:30.415Z,60.59
2022-12-03T13:08:59.217Z,60.69
2022-12-03T13:11:42.584Z,60.52
2022-12-03T13:14:18.690Z,60.56
2022-12-03T13:16:47.572Z,60.41
2022-12-03T13:19:22.946Z,60.26
2022-12-03T13:21:51.382Z,60.64
2022-12-03T13:24:36.600Z,60.63
2022-12-03T13:27:33.039Z,60.58
2022-12-03T13:30:07.483Z,60.42
2022-12-03T13:32:37.627Z,60.35
2022-12-03T13:35:13.498Z,59.35
2022-12-03T13:37:40.434Z,59.81
2022-12-03T13:40:31.696Z,60.27
2022-12-03T13:42:59.691Z,60.64
2022-12-03T13:45:37.686Z,60.85
2022-12-03T13:48:21.774Z,60.79
2022-12-03T13:50:49.198Z,61.27
2022-12-03T13:53:26.077Z,61.09
2022-12-03T13:56:03.622Z,61.06
2022-12-03T13:58:30.500Z,60.68
2022-12-03T14:00:57.399Z,60.81
2022-12-03T14:03:24.330Z,60.94
2022-12-03T14:05:51.268Z,60.61
2022-12-03T14:08:18.213Z,60.94
2022-12-03T14:10:45.257Z,60.82
2022-12-03T14:13:12.287Z,60.63
2022-12-03T14:15:39.143Z,60.86
2022-12-03T14:18:06.157Z,60.88
2022-12-03T14:20:34.766Z,60.68
2022-12-03T14:23:01.622Z,60.82
2022-12-03T14:25:28.525Z,60.47
2022-12-03T14:27:55.442Z,60.61
2022-12-03T14:30:22.447Z,60.59
2022-12-03T14:32:49.310Z,60.62
2022-12-03T14:35:16.307Z,60.77
2022-12-03T14:37:43.302Z,60.52
2022-12-03T14:40:10.442Z,60.70
2022-12-03T14:42:37.453Z,60.64
2022-12-03T14:45:04.771Z,60.72
2022-12-03T14:47:31.632Z,60.43
2022-12-03T14:49:59.591Z,60.65
2022-12-03T14:52:26.631Z,60.68
2022-12-03T14:54:53.557Z,60.56
2022-12-03T14:57:20.507Z,60.83
2022-12-03T14:59:47.441Z,60.50
2022-12-03T15:02:14.460Z,57.13
2022-12-03T15:04:42.084Z,56.58
2022-12-03T15:07:09.825Z,58.29
2022-12-03T15:09:36.813Z,58.90
2022-12-03T15:12:04.887Z,59.16
2022-12-03T15:14:32.002Z,59.49
2022-12-03T15:16:59.400Z,59.60
2022-12-03T15:19:26.672Z,59.76
2022-12-03T15:21:53.695Z,59.67
2022-12-03T15:24:20.771Z,59.79
2022-12-03T15:26:47.977Z,59.59
2022-12-03T15:29:14.970Z,59.71
2022-12-03T15:31:41.882Z,59.78
2022-12-03T15:34:09.050Z,60.08
2022-12-03T15:36:36.028Z,60.01
2022-12-03T15:39:03.379Z,59.91
2022-12-03T15:41:30.567Z,60.02
2022-12-03T15:43:59.922Z,60.13
2022-12-03T15:46:28.287Z,59.53
2022-12-03T15:48:56.070Z,59.83
2022-12-03T15:51:23.515Z,59.94
2022-12-03T15:53:50.883Z,59.87
2022-12-03T15:56:17.750Z,59.85
2022-12-03T15:58:44.834Z,59.83
2022-12-03T16:01:14.018Z,59.75
2022-12-03T16:03:41.572Z,59.97
2022-12-03T16:06:08.544Z,59.86
2022-12-03T16:08:35.436Z,59.87
2022-12-03T16:11:02.387Z,59.80
2022-12-03T16:13:29.389Z,59.93
2022-12-03T16:15:56.410Z,59.67
2022-12-03T16:18:23.324Z,60.04
2022-12-03T16:20:50.303Z,59.36
2022-12-03T16:23:17.255Z,58.94
2022-12-03T16:25:44.661Z,59.03
2022-12-03T16:28:11.638Z,58.75
2022-12-03T16:30:38.716Z,59.11
2022-12-03T16:33:05.988Z,59.09
2022-12-03T16:35:32.949Z,58.91
2022-12-03T16:37:59.896Z,59.06
2022-12-03T16:40:27.239Z,59.00
2022-12-03T16:42:54.151Z,58.86
2022-12-03T16:45:32.997Z,58.93
2022-12-03T16:48:01.372Z,58.98
2022-12-03T16:50:30.175Z,59.10
2022-12-03T16:52:58.187Z,58.99
2022-12-03T16:55:25.388Z,58.89
2022-12-03T16:57:52.416Z,58.84
2022-12-03T17:00:22.133Z,58.96
2022-12-03T17:02:49.807Z,58.93
2022-12-03T17:05:16.865Z,58.71
2022-12-03T17:07:43.834Z,58.88
2022-12-03T17:10:11.558Z,58.68
2022-12-03T17:13:07.580Z,58.67
2022-12-03T17:15:25.339Z,58.61
2022-12-03T17:17:52.246Z,58.73
2022-12-03T17:20:19.453Z,58.50
2022-12-03T17:22:46.983Z,58.46
2022-12-03T17:25:14.188Z,58.56
2022-12-03T17:27:44.981Z,58.73
2022-12-03T17:30:13.916Z,58.83
2022-12-03T17:32:40.921Z,58.73
2022-12-03T17:35:08.888Z,58.90
2022-12-03T17:37:36.247Z,58.49
2022-12-03T17:40:08.341Z,58.34
2022-12-03T17:42:35.264Z,58.33
2022-12-03T17:45:02.334Z,58.33
2022-12-03T17:47:29.783Z,58.35
2022-12-03T17:49:57.731Z,58.52
2022-12-03T17:52:25.141Z,58.45
2022-12-03T17:57:39.362Z,58.84
2022-12-03T18:00:06.998Z,58.81
2022-12-03T18:02:34.072Z,58.83
2022-12-03T18:05:01.211Z,58.81
2022-12-03T18:07:28.181Z,58.94
2022-12-03T18:09:55.998Z,58.71
2022-12-03T18:12:23.276Z,58.40
2022-12-03T18:14:50.478Z,58.79
2022-12-03T18:17:17.324Z,58.82
2022-12-03T18:19:44.265Z,58.45
2022-12-03T18:22:11.562Z,58.32
2022-12-03T18:24:38.561Z,58.53
2022-12-03T18:27:06.268Z,58.56
2022-12-03T18:29:33.135Z,58.39
2022-12-03T18:32:00.266Z,58.42
2022-12-03T18:34:27.362Z,58.22
2022-12-03T18:36:54.824Z,58.11
2022-12-03T18:39:34.254Z,58.07
2022-12-03T18:42:01.560Z,58.07
2022-12-03T18:44:29.998Z,58.20
2022-12-03T18:46:58.100Z,58.02
2022-12-03T18:49:25.279Z,57.96
2022-12-03T18:51:58.938Z,58.09
2022-12-03T18:54:26.583Z,57.88
2022-12-03T18:56:53.614Z,57.77
2022-12-03T18:59:20.808Z,57.83
2022-12-03T19:01:48.321Z,58.03
2022-12-03T19:04:15.490Z,57.92
2022-12-03T19:06:42.713Z,58.05
2022-12-03T19:09:10.100Z,57.98
2022-12-03T19:11:37.087Z,58.02
2022-12-03T19:14:04.322Z,57.99
2022-12-03T19:16:31.921Z,58.02
2022-12-03T19:18:59.315Z,57.76
2022-12-03T19:21:30.706Z,57.93
2022-12-03T19:24:24.231Z,57.80
2022-12-03T19:26:48.181Z,58.30
2022-12-03T19:29:16.611Z,58.49
2022-12-03T19:31:43.828Z,58.27
2022-12-03T19:34:10.862Z,58.49
2022-12-03T19:36:38.203Z,58.25
2022-12-03T19:39:05.502Z,58.17
2022-12-03T19:41:32.613Z,58.59
2022-12-03T19:43:59.818Z,58.60
2022-12-03T19:46:31.771Z,58.65
2022-12-03T19:48:59.599Z,58.71
2022-12-03T19:51:36.101Z,58.72
2022-12-03T19:54:06.281Z,58.48
2022-12-03T19:56:34.581Z,58.55
2022-12-03T19:59:02.915Z,58.52
2022-12-03T20:01:33.967Z,58.26
2022-12-03T20:04:04.316Z,58.18
2022-12-03T20:06:33.911Z,58.31
2022-12-03T20:09:08.641Z,58.45
2022-12-03T20:11:36.358Z,58.52
2022-12-03T20:14:09.082Z,58.56
2022-12-03T20:16:36.583Z,58.36
2022-12-03T20:19:06.190Z,58.39
2022-12-03T20:21:35.935Z,58.15
2022-12-03T20:24:05.047Z,58.01
2022-12-03T20:26:33.843Z,58.33
2022-12-03T20:29:02.348Z,57.61
2022-12-03T20:31:32.841Z,58.05
2022-12-03T20:34:02.484Z,57.77
2022-12-03T20:36:32.512Z,57.71
2022-12-03T20:39:02.905Z,57.77
2022-12-03T20:41:34.422Z,57.96
2022-12-03T20:44:02.760Z,57.63
2022-12-03T20:46:33.606Z,57.78
2022-12-03T20:49:01.082Z,57.85
2022-12-03T20:51:30.812Z,58.02
2022-12-03T20:54:00.265Z,57.79
2022-12-03T20:56:31.885Z,57.69
2022-12-03T20:59:12.140Z,57.72
2022-12-03T21:01:40.696Z,56.85
2022-12-03T21:04:09.726Z,57.62
2022-12-03T21:06:38.600Z,57.31
2022-12-03T21:09:07.102Z,57.14
2022-12-03T21:11:36.435Z,57.08
2022-12-03T21:14:04.600Z,57.15
2022-12-03T21:17:06.133Z,57.18
2022-12-03T21:19:22.357Z,57.34
2022-12-03T21:21:49.783Z,57.33
2022-12-03T21:24:21.507Z,57.27
2022-12-03T21:26:51.845Z,57.01
2022-12-03T21:29:19.036Z,57.20
2022-12-03T21:31:48.042Z,57.14
2022-12-03T21:34:15.768Z,57.18
2022-12-03T21:36:43.079Z,57.21
2022-12-03T21:39:10.438Z,57.22
2022-12-03T21:41:39.247Z,57.43
2022-12-03T21:44:06.695Z,57.63
2022-12-03T21:47:12.137Z,57.48
2022-12-03T21:49:23.209Z,57.52
2022-12-03T21:51:52.819Z,57.70
2022-12-03T21:54:23.031Z,57.49
2022-12-03T21:56:50.032Z,57.66
2022-12-03T21:59:17.234Z,57.73
2022-12-03T22:01:47.396Z,57.54
2022-12-03T22:04:17.660Z,57.70
2022-12-03T22:06:44.798Z,57.65
2022-12-03T22:09:11.802Z,57.58
2022-12-03T22:11:39.077Z,57.62
2022-12-03T22:14:07.431Z,57.50
2022-12-03T22:16:35.049Z,57.45
2022-12-03T22:19:02.773Z,57.46
2022-12-03T22:21:30.662Z,57.52
2022-12-03T22:23:58.355Z,57.50
2022-12-03T22:26:25.965Z,57.50
2022-12-03T22:28:53.555Z,57.40
2022-12-03T22:31:21.025Z,57.68
2022-12-03T22:33:49.998Z,57.66
2022-12-03T22:36:21.642Z,57.55
2022-12-03T22:38:50.506Z,57.45
2022-12-03T22:41:19.081Z,57.72
2022-12-03T22:43:48.508Z,57.82
2022-12-03T22:46:16.516Z,57.71
2022-12-03T22:48:46.282Z,57.85
2022-12-03T22:51:19.435Z,57.78
2022-12-03T22:53:50.553Z,57.77
2022-12-03T22:56:18.127Z,57.72
2022-12-03T22:58:46.837Z,57.84
2022-12-03T23:01:41.372Z,57.92
2022-12-03T23:04:09.536Z,57.79
2022-12-03T23:06:37.953Z,57.59
2022-12-03T23:09:07.597Z,57.74
2022-12-03T23:11:35.169Z,57.88
2022-12-03T23:14:02.833Z,57.91
2022-12-03T23:16:32.501Z,58.02
2022-12-03T23:19:01.477Z,57.74
2022-12-03T23:21:31.574Z,58.19
2022-12-03T23:24:00.139Z,57.82
2022-12-03T23:26:28.751Z,57.13
2022-12-03T23:28:56.664Z,56.92
2022-12-03T23:31:29.544Z,57.12
2022-12-03T23:33:57.877Z,57.19
2022-12-03T23:36:27.635Z,57.23
2022-12-03T23:38:55.342Z,57.23
2022-12-03T23:41:24.439Z,57.28
2022-12-03T23:43:52.307Z,56.99
2022-12-03T23:46:23.402Z,57.31
2022-12-03T23:48:53.846Z,57.46
2022-12-03T23:51:25.397Z,57.46
2022-12-03T23:53:55.183Z,57.51
2022-12-03T23:56:25.413Z,57.42
2022-12-03T23:58:52.980Z,57.51
